sensor_id;sensor_type;location;lat;lon;timestamp;P1;durP1;ratioP1;P2;durP2;ratioP2
14040;SDS011;7095;51.388;6.196;2023-06-10T00:01:24;8.90;;;7.00;;
14040;SDS011;7095;51.388;6.196;2023-06-10T00:03:52;7.57;;;6.50;;
14040;SDS011;7095;51.388;6.196;2023-06-10T00:06:21;12.23;;;6.93;;
14040;SDS011;7095;51.388;6.196;2023-06-10T00:08:51;11.03;;;7.70;;
14040;SDS011;7095;51.388;6.196;2023-06-10T00:11:20;12.03;;;6.83;;
14040;SDS011;7095;51.388;6.196;2023-06-10T00:13:51;8.27;;;7.40;;
14040;SDS011;7095;51.388;6.196;2023-06-10T00:16:20;11.47;;;7.13;;
14040;SDS011;7095;51.388;6.196;2023-06-10T00:18:49;8.43;;;6.83;;
14040;SDS011;7095;51.388;6.196;2023-06-10T00:21:19;9.20;;;7.43;;
14040;SDS011;7095;51.388;6.196;2023-06-10T00:23:48;11.03;;;6.33;;
14040;SDS011;7095;51.388;6.196;2023-06-10T00:26:17;7.77;;;6.60;;
14040;SDS011;7095;51.388;6.196;2023-06-10T00:28:46;9.37;;;7.07;;
14040;SDS011;7095;51.388;6.196;2023-06-10T00:31:16;10.60;;;7.53;;
14040;SDS011;7095;51.388;6.196;2023-06-10T00:33:45;6.77;;;6.07;;
14040;SDS011;7095;51.388;6.196;2023-06-10T00:36:14;9.33;;;6.97;;
14040;SDS011;7095;51.388;6.196;2023-06-10T00:38:42;8.90;;;7.20;;
14040;SDS011;7095;51.388;6.196;2023-06-10T00:41:11;11.40;;;7.07;;
14040;SDS011;7095;51.388;6.196;2023-06-10T00:43:40;12.57;;;6.90;;
14040;SDS011;7095;51.388;6.196;2023-06-10T00:46:08;8.03;;;7.23;;
14040;SDS011;7095;51.388;6.196;2023-06-10T00:48:40;8.47;;;7.00;;
14040;SDS011;7095;51.388;6.196;2023-06-10T00:51:10;8.47;;;6.90;;
14040;SDS011;7095;51.388;6.196;2023-06-10T00:53:39;9.93;;;8.17;;
14040;SDS011;7095;51.388;6.196;2023-06-10T00:56:09;9.17;;;8.27;;
14040;SDS011;7095;51.388;6.196;2023-06-10T00:58:38;10.90;;;8.03;;
14040;SDS011;7095;51.388;6.196;2023-06-10T01:01:06;11.40;;;8.47;;
14040;SDS011;7095;51.388;6.196;2023-06-10T01:03:39;8.57;;;7.77;;
14040;SDS011;7095;51.388;6.196;2023-06-10T01:06:14;9.13;;;8.03;;
14040;SDS011;7095;51.388;6.196;2023-06-10T01:08:54;9.50;;;8.53;;
14040;SDS011;7095;51.388;6.196;2023-06-10T01:11:29;9.40;;;7.97;;
14040;SDS011;7095;51.388;6.196;2023-06-10T01:14:04;8.27;;;7.57;;
14040;SDS011;7095;51.388;6.196;2023-06-10T01:16:34;8.23;;;7.40;;
14040;SDS011;7095;51.388;6.196;2023-06-10T01:19:05;10.53;;;8.17;;
14040;SDS011;7095;51.388;6.196;2023-06-10T01:21:35;10.27;;;7.80;;
14040;SDS011;7095;51.388;6.196;2023-06-10T01:24:06;9.17;;;8.27;;
14040;SDS011;7095;51.388;6.196;2023-06-10T01:26:38;9.27;;;8.37;;
14040;SDS011;7095;51.388;6.196;2023-06-10T01:29:11;9.70;;;8.83;;
14040;SDS011;7095;51.388;6.196;2023-06-10T01:31:48;12.97;;;9.10;;
14040;SDS011;7095;51.388;6.196;2023-06-10T01:34:20;10.27;;;9.20;;
14040;SDS011;7095;51.388;6.196;2023-06-10T01:36:53;13.60;;;8.63;;
14040;SDS011;7095;51.388;6.196;2023-06-10T01:39:24;13.73;;;9.20;;
14040;SDS011;7095;51.388;6.196;2023-06-10T01:41:58;9.93;;;8.70;;
14040;SDS011;7095;51.388;6.196;2023-06-10T01:44:27;11.67;;;8.83;;
14040;SDS011;7095;51.388;6.196;2023-06-10T01:46:55;15.10;;;9.53;;
14040;SDS011;7095;51.388;6.196;2023-06-10T01:49:24;9.93;;;8.80;;
14040;SDS011;7095;51.388;6.196;2023-06-10T01:51:54;12.90;;;9.53;;
14040;SDS011;7095;51.388;6.196;2023-06-10T01:54:22;10.27;;;8.57;;
14040;SDS011;7095;51.388;6.196;2023-06-10T01:56:51;15.73;;;10.03;;
14040;SDS011;7095;51.388;6.196;2023-06-10T01:59:20;11.33;;;9.33;;
14040;SDS011;7095;51.388;6.196;2023-06-10T02:01:49;12.80;;;9.90;;
14040;SDS011;7095;51.388;6.196;2023-06-10T02:04:17;13.63;;;9.90;;
14040;SDS011;7095;51.388;6.196;2023-06-10T02:06:46;13.87;;;10.73;;
14040;SDS011;7095;51.388;6.196;2023-06-10T02:09:16;13.43;;;10.23;;
14040;SDS011;7095;51.388;6.196;2023-06-10T02:11:45;11.23;;;9.53;;
14040;SDS011;7095;51.388;6.196;2023-06-10T02:14:14;12.93;;;10.13;;
14040;SDS011;7095;51.388;6.196;2023-06-10T02:16:43;16.27;;;10.33;;
14040;SDS011;7095;51.388;6.196;2023-06-10T02:19:12;12.53;;;10.70;;
14040;SDS011;7095;51.388;6.196;2023-06-10T02:21:40;12.43;;;10.47;;
14040;SDS011;7095;51.388;6.196;2023-06-10T02:24:09;12.03;;;10.73;;
14040;SDS011;7095;51.388;6.196;2023-06-10T02:26:39;16.53;;;11.10;;
14040;SDS011;7095;51.388;6.196;2023-06-10T02:29:08;12.43;;;10.97;;
14040;SDS011;7095;51.388;6.196;2023-06-10T02:31:36;14.37;;;10.87;;
14040;SDS011;7095;51.388;6.196;2023-06-10T02:34:07;16.73;;;11.40;;
14040;SDS011;7095;51.388;6.196;2023-06-10T02:36:36;12.47;;;11.23;;
14040;SDS011;7095;51.388;6.196;2023-06-10T02:39:07;12.70;;;11.10;;
14040;SDS011;7095;51.388;6.196;2023-06-10T02:41:36;13.83;;;12.30;;
14040;SDS011;7095;51.388;6.196;2023-06-10T02:44:06;12.63;;;11.33;;
14040;SDS011;7095;51.388;6.196;2023-06-10T02:46:35;12.47;;;11.17;;
14040;SDS011;7095;51.388;6.196;2023-06-10T02:49:04;12.17;;;10.27;;
14040;SDS011;7095;51.388;6.196;2023-06-10T02:51:34;16.03;;;11.83;;
14040;SDS011;7095;51.388;6.196;2023-06-10T02:54:03;13.33;;;11.77;;
14040;SDS011;7095;51.388;6.196;2023-06-10T02:56:33;13.63;;;12.07;;
14040;SDS011;7095;51.388;6.196;2023-06-10T02:59:04;19.13;;;12.03;;
14040;SDS011;7095;51.388;6.196;2023-06-10T03:01:35;13.20;;;11.80;;
14040;SDS011;7095;51.388;6.196;2023-06-10T03:04:08;13.87;;;12.40;;
14040;SDS011;7095;51.388;6.196;2023-06-10T03:06:37;15.20;;;12.83;;
14040;SDS011;7095;51.388;6.196;2023-06-10T03:09:17;15.30;;;11.33;;
14040;SDS011;7095;51.388;6.196;2023-06-10T03:11:49;14.17;;;10.93;;
14040;SDS011;7095;51.388;6.196;2023-06-10T03:14:18;16.17;;;10.60;;
14040;SDS011;7095;51.388;6.196;2023-06-10T03:16:48;13.27;;;11.57;;
14040;SDS011;7095;51.388;6.196;2023-06-10T03:19:18;19.27;;;12.43;;
14040;SDS011;7095;51.388;6.196;2023-06-10T03:21:50;19.00;;;12.87;;
14040;SDS011;7095;51.388;6.196;2023-06-10T03:24:26;13.63;;;11.93;;
14040;SDS011;7095;51.388;6.196;2023-06-10T03:26:54;17.47;;;11.93;;
14040;SDS011;7095;51.388;6.196;2023-06-10T03:29:23;15.97;;;12.30;;
14040;SDS011;7095;51.388;6.196;2023-06-10T03:31:54;17.77;;;13.30;;
14040;SDS011;7095;51.388;6.196;2023-06-10T03:34:24;14.23;;;12.37;;
14040;SDS011;7095;51.388;6.196;2023-06-10T03:36:52;15.53;;;13.00;;
14040;SDS011;7095;51.388;6.196;2023-06-10T03:39:21;17.43;;;13.73;;
14040;SDS011;7095;51.388;6.196;2023-06-10T03:41:50;15.40;;;13.77;;
14040;SDS011;7095;51.388;6.196;2023-06-10T03:44:19;15.13;;;12.90;;
14040;SDS011;7095;51.388;6.196;2023-06-10T03:46:47;15.63;;;13.73;;
14040;SDS011;7095;51.388;6.196;2023-06-10T03:49:18;18.90;;;13.67;;
14040;SDS011;7095;51.388;6.196;2023-06-10T03:51:46;20.00;;;13.87;;
14040;SDS011;7095;51.388;6.196;2023-06-10T03:54:15;17.20;;;13.87;;
14040;SDS011;7095;51.388;6.196;2023-06-10T03:56:44;17.43;;;13.83;;
14040;SDS011;7095;51.388;6.196;2023-06-10T03:59:13;19.40;;;14.33;;
14040;SDS011;7095;51.388;6.196;2023-06-10T04:01:42;17.67;;;14.10;;
14040;SDS011;7095;51.388;6.196;2023-06-10T04:04:13;18.47;;;14.50;;
14040;SDS011;7095;51.388;6.196;2023-06-10T04:06:45;28.93;;;14.17;;
14040;SDS011;7095;51.388;6.196;2023-06-10T04:09:14;17.50;;;14.30;;
14040;SDS011;7095;51.388;6.196;2023-06-10T04:11:43;15.90;;;13.50;;
14040;SDS011;7095;51.388;6.196;2023-06-10T04:14:12;15.27;;;13.10;;
14040;SDS011;7095;51.388;6.196;2023-06-10T04:16:41;17.30;;;14.17;;
14040;SDS011;7095;51.388;6.196;2023-06-10T04:19:11;15.57;;;13.90;;
14040;SDS011;7095;51.388;6.196;2023-06-10T04:21:40;17.43;;;14.70;;
14040;SDS011;7095;51.388;6.196;2023-06-10T04:24:10;15.70;;;14.10;;
14040;SDS011;7095;51.388;6.196;2023-06-10T04:26:39;20.77;;;14.90;;
14040;SDS011;7095;51.388;6.196;2023-06-10T04:29:07;18.63;;;14.93;;
14040;SDS011;7095;51.388;6.196;2023-06-10T04:31:36;17.03;;;14.70;;
14040;SDS011;7095;51.388;6.196;2023-06-10T04:34:05;19.63;;;16.20;;
14040;SDS011;7095;51.388;6.196;2023-06-10T04:36:34;16.83;;;14.37;;
14040;SDS011;7095;51.388;6.196;2023-06-10T04:39:03;18.07;;;15.00;;
14040;SDS011;7095;51.388;6.196;2023-06-10T04:41:35;17.37;;;14.33;;
14040;SDS011;7095;51.388;6.196;2023-06-10T04:44:04;18.57;;;14.03;;
14040;SDS011;7095;51.388;6.196;2023-06-10T04:46:33;16.70;;;14.97;;
14040;SDS011;7095;51.388;6.196;2023-06-10T04:49:02;20.07;;;15.20;;
14040;SDS011;7095;51.388;6.196;2023-06-10T04:51:31;15.50;;;13.90;;
14040;SDS011;7095;51.388;6.196;2023-06-10T04:54:00;20.33;;;15.17;;
14040;SDS011;7095;51.388;6.196;2023-06-10T04:56:30;17.83;;;14.20;;
14040;SDS011;7095;51.388;6.196;2023-06-10T04:59:00;18.67;;;15.10;;
14040;SDS011;7095;51.388;6.196;2023-06-10T05:01:29;19.83;;;14.23;;
14040;SDS011;7095;51.388;6.196;2023-06-10T05:03:57;17.80;;;14.03;;
14040;SDS011;7095;51.388;6.196;2023-06-10T05:06:26;17.63;;;14.17;;
14040;SDS011;7095;51.388;6.196;2023-06-10T05:08:54;20.73;;;14.43;;
14040;SDS011;7095;51.388;6.196;2023-06-10T05:11:23;19.43;;;14.07;;
14040;SDS011;7095;51.388;6.196;2023-06-10T05:13:52;16.43;;;13.97;;
14040;SDS011;7095;51.388;6.196;2023-06-10T05:16:21;19.17;;;14.03;;
14040;SDS011;7095;51.388;6.196;2023-06-10T05:18:50;19.17;;;13.87;;
14040;SDS011;7095;51.388;6.196;2023-06-10T05:21:19;17.80;;;15.10;;
14040;SDS011;7095;51.388;6.196;2023-06-10T05:23:48;21.60;;;15.00;;
14040;SDS011;7095;51.388;6.196;2023-06-10T05:26:16;15.47;;;13.97;;
14040;SDS011;7095;51.388;6.196;2023-06-10T05:28:45;15.93;;;14.07;;
14040;SDS011;7095;51.388;6.196;2023-06-10T05:31:13;20.70;;;15.57;;
14040;SDS011;7095;51.388;6.196;2023-06-10T05:33:43;21.23;;;14.63;;
14040;SDS011;7095;51.388;6.196;2023-06-10T05:36:12;16.47;;;14.47;;
14040;SDS011;7095;51.388;6.196;2023-06-10T05:38:41;18.23;;;14.33;;
14040;SDS011;7095;51.388;6.196;2023-06-10T05:41:09;20.80;;;13.43;;
14040;SDS011;7095;51.388;6.196;2023-06-10T05:43:38;15.13;;;13.40;;
14040;SDS011;7095;51.388;6.196;2023-06-10T05:46:06;14.47;;;12.97;;
14040;SDS011;7095;51.388;6.196;2023-06-10T05:48:35;16.33;;;13.67;;
14040;SDS011;7095;51.388;6.196;2023-06-10T05:51:05;17.60;;;14.77;;
14040;SDS011;7095;51.388;6.196;2023-06-10T05:53:33;16.20;;;13.37;;
14040;SDS011;7095;51.388;6.196;2023-06-10T05:56:02;15.27;;;13.63;;
14040;SDS011;7095;51.388;6.196;2023-06-10T05:58:31;16.17;;;13.80;;
14040;SDS011;7095;51.388;6.196;2023-06-10T06:00:59;15.33;;;13.17;;
14040;SDS011;7095;51.388;6.196;2023-06-10T06:03:28;14.70;;;12.97;;
14040;SDS011;7095;51.388;6.196;2023-06-10T06:05:57;17.17;;;13.37;;
14040;SDS011;7095;51.388;6.196;2023-06-10T06:08:27;14.90;;;12.57;;
14040;SDS011;7095;51.388;6.196;2023-06-10T06:10:55;17.37;;;12.67;;
14040;SDS011;7095;51.388;6.196;2023-06-10T06:13:24;14.73;;;13.03;;
14040;SDS011;7095;51.388;6.196;2023-06-10T06:15:52;15.93;;;12.00;;
14040;SDS011;7095;51.388;6.196;2023-06-10T06:18:21;19.93;;;12.80;;
14040;SDS011;7095;51.388;6.196;2023-06-10T06:20:50;23.23;;;13.27;;
14040;SDS011;7095;51.388;6.196;2023-06-10T06:23:19;15.20;;;11.97;;
14040;SDS011;7095;51.388;6.196;2023-06-10T06:25:49;15.90;;;11.50;;
14040;SDS011;7095;51.388;6.196;2023-06-10T06:28:18;16.20;;;12.13;;
14040;SDS011;7095;51.388;6.196;2023-06-10T06:30:47;14.93;;;11.87;;
14040;SDS011;7095;51.388;6.196;2023-06-10T06:33:16;16.40;;;11.93;;
14040;SDS011;7095;51.388;6.196;2023-06-10T06:35:45;17.43;;;11.83;;
14040;SDS011;7095;51.388;6.196;2023-06-10T06:38:14;18.63;;;11.70;;
14040;SDS011;7095;51.388;6.196;2023-06-10T06:40:43;19.40;;;11.53;;
14040;SDS011;7095;51.388;6.196;2023-06-10T06:43:12;15.57;;;11.13;;
14040;SDS011;7095;51.388;6.196;2023-06-10T06:45:44;14.70;;;11.00;;
14040;SDS011;7095;51.388;6.196;2023-06-10T06:48:13;19.70;;;11.27;;
14040;SDS011;7095;51.388;6.196;2023-06-10T06:50:42;17.27;;;11.43;;
14040;SDS011;7095;51.388;6.196;2023-06-10T06:53:10;14.47;;;10.57;;
14040;SDS011;7095;51.388;6.196;2023-06-10T06:55:39;18.53;;;11.73;;
14040;SDS011;7095;51.388;6.196;2023-06-10T06:58:07;18.67;;;9.67;;
14040;SDS011;7095;51.388;6.196;2023-06-10T07:00:37;15.50;;;10.70;;
14040;SDS011;7095;51.388;6.196;2023-06-10T07:03:06;16.20;;;9.77;;
14040;SDS011;7095;51.388;6.196;2023-06-10T07:05:35;18.40;;;10.67;;
14040;SDS011;7095;51.388;6.196;2023-06-10T07:08:04;15.47;;;10.17;;
14040;SDS011;7095;51.388;6.196;2023-06-10T07:10:32;12.03;;;9.47;;
14040;SDS011;7095;51.388;6.196;2023-06-10T07:13:01;14.27;;;9.43;;
14040;SDS011;7095;51.388;6.196;2023-06-10T07:15:30;13.63;;;8.90;;
14040;SDS011;7095;51.388;6.196;2023-06-10T07:18:01;12.07;;;9.20;;
14040;SDS011;7095;51.388;6.196;2023-06-10T07:20:29;13.87;;;8.80;;
14040;SDS011;7095;51.388;6.196;2023-06-10T07:22:58;13.90;;;8.87;;
14040;SDS011;7095;51.388;6.196;2023-06-10T07:25:26;17.90;;;9.90;;
14040;SDS011;7095;51.388;6.196;2023-06-10T07:27:55;13.90;;;9.33;;
14040;SDS011;7095;51.388;6.196;2023-06-10T07:30:24;15.50;;;8.13;;
14040;SDS011;7095;51.388;6.196;2023-06-10T07:32:52;13.77;;;8.83;;
14040;SDS011;7095;51.388;6.196;2023-06-10T07:35:24;11.67;;;8.97;;
14040;SDS011;7095;51.388;6.196;2023-06-10T07:37:52;13.50;;;8.73;;
14040;SDS011;7095;51.388;6.196;2023-06-10T07:40:21;15.23;;;9.13;;
14040;SDS011;7095;51.388;6.196;2023-06-10T07:42:49;12.47;;;8.47;;
14040;SDS011;7095;51.388;6.196;2023-06-10T07:45:19;12.83;;;8.37;;
14040;SDS011;7095;51.388;6.196;2023-06-10T07:47:48;12.70;;;8.13;;
14040;SDS011;7095;51.388;6.196;2023-06-10T07:50:17;10.90;;;8.43;;
14040;SDS011;7095;51.388;6.196;2023-06-10T07:52:47;11.70;;;8.47;;
14040;SDS011;7095;51.388;6.196;2023-06-10T07:55:15;17.97;;;8.33;;
14040;SDS011;7095;51.388;6.196;2023-06-10T07:57:44;10.47;;;7.90;;
14040;SDS011;7095;51.388;6.196;2023-06-10T08:00:13;13.63;;;8.60;;
14040;SDS011;7095;51.388;6.196;2023-06-10T08:02:41;11.77;;;7.47;;
14040;SDS011;7095;51.388;6.196;2023-06-10T08:05:10;11.67;;;7.37;;
14040;SDS011;7095;51.388;6.196;2023-06-10T08:07:40;12.00;;;7.57;;
14040;SDS011;7095;51.388;6.196;2023-06-10T08:10:11;12.00;;;7.43;;
14040;SDS011;7095;51.388;6.196;2023-06-10T08:12:39;13.23;;;8.60;;
14040;SDS011;7095;51.388;6.196;2023-06-10T08:15:08;19.90;;;8.57;;
14040;SDS011;7095;51.388;6.196;2023-06-10T08:17:38;15.13;;;8.70;;
14040;SDS011;7095;51.388;6.196;2023-06-10T08:20:07;18.07;;;8.47;;
14040;SDS011;7095;51.388;6.196;2023-06-10T08:22:36;16.13;;;8.80;;
14040;SDS011;7095;51.388;6.196;2023-06-10T08:25:05;14.50;;;8.53;;
14040;SDS011;7095;51.388;6.196;2023-06-10T08:27:36;14.37;;;8.00;;
14040;SDS011;7095;51.388;6.196;2023-06-10T08:30:05;12.17;;;7.93;;
14040;SDS011;7095;51.388;6.196;2023-06-10T08:32:34;14.63;;;7.63;;
14040;SDS011;7095;51.388;6.196;2023-06-10T08:35:04;11.63;;;7.07;;
14040;SDS011;7095;51.388;6.196;2023-06-10T08:37:33;12.00;;;8.10;;
14040;SDS011;7095;51.388;6.196;2023-06-10T08:40:02;12.73;;;7.90;;
14040;SDS011;7095;51.388;6.196;2023-06-10T08:42:33;17.90;;;8.10;;
14040;SDS011;7095;51.388;6.196;2023-06-10T08:45:06;13.27;;;8.30;;
14040;SDS011;7095;51.388;6.196;2023-06-10T08:47:39;12.82;;;8.40;;
14040;SDS011;7095;51.388;6.196;2023-06-10T08:50:12;12.63;;;7.80;;
14040;SDS011;7095;51.388;6.196;2023-06-10T08:52:44;11.27;;;7.23;;
14040;SDS011;7095;51.388;6.196;2023-06-10T08:55:15;14.00;;;7.33;;
14040;SDS011;7095;51.388;6.196;2023-06-10T08:57:46;13.17;;;7.63;;
14040;SDS011;7095;51.388;6.196;2023-06-10T09:00:17;11.20;;;7.87;;
14040;SDS011;7095;51.388;6.196;2023-06-10T09:02:46;11.33;;;7.10;;
14040;SDS011;7095;51.388;6.196;2023-06-10T09:05:15;9.60;;;7.37;;
14040;SDS011;7095;51.388;6.196;2023-06-10T09:07:45;12.67;;;7.60;;
14040;SDS011;7095;51.388;6.196;2023-06-10T09:10:16;12.50;;;7.07;;
14040;SDS011;7095;51.388;6.196;2023-06-10T09:12:45;9.20;;;6.88;;
14040;SDS011;7095;51.388;6.196;2023-06-10T09:15:14;10.67;;;7.60;;
14040;SDS011;7095;51.388;6.196;2023-06-10T09:17:45;11.33;;;6.97;;
14040;SDS011;7095;51.388;6.196;2023-06-10T09:20:14;10.80;;;7.07;;
14040;SDS011;7095;51.388;6.196;2023-06-10T09:22:43;15.30;;;7.10;;
14040;SDS011;7095;51.388;6.196;2023-06-10T09:25:12;9.80;;;6.18;;
14040;SDS011;7095;51.388;6.196;2023-06-10T09:27:45;13.35;;;7.55;;
14040;SDS011;7095;51.388;6.196;2023-06-10T09:30:24;11.30;;;6.32;;
14040;SDS011;7095;51.388;6.196;2023-06-10T09:32:56;12.20;;;6.68;;
14040;SDS011;7095;51.388;6.196;2023-06-10T09:35:28;12.35;;;7.53;;
14040;SDS011;7095;51.388;6.196;2023-06-10T09:37:59;12.77;;;6.72;;
14040;SDS011;7095;51.388;6.196;2023-06-10T09:40:29;14.00;;;7.18;;
14040;SDS011;7095;51.388;6.196;2023-06-10T09:42:58;8.98;;;6.53;;
14040;SDS011;7095;51.388;6.196;2023-06-10T09:45:29;11.02;;;6.65;;
14040;SDS011;7095;51.388;6.196;2023-06-10T09:48:01;13.18;;;6.70;;
14040;SDS011;7095;51.388;6.196;2023-06-10T09:50:32;10.00;;;6.45;;
14040;SDS011;7095;51.388;6.196;2023-06-10T09:53:01;16.85;;;7.72;;
14040;SDS011;7095;51.388;6.196;2023-06-10T09:55:32;9.23;;;6.00;;
14040;SDS011;7095;51.388;6.196;2023-06-10T09:58:02;9.65;;;6.65;;
14040;SDS011;7095;51.388;6.196;2023-06-10T10:00:32;8.23;;;6.07;;
14040;SDS011;7095;51.388;6.196;2023-06-10T10:03:03;9.98;;;6.57;;
14040;SDS011;7095;51.388;6.196;2023-06-10T10:05:33;12.75;;;6.70;;
14040;SDS011;7095;51.388;6.196;2023-06-10T10:08:03;6.97;;;5.97;;
14040;SDS011;7095;51.388;6.196;2023-06-10T10:10:32;7.90;;;6.03;;
14040;SDS011;7095;51.388;6.196;2023-06-10T10:13:00;8.85;;;6.60;;
14040;SDS011;7095;51.388;6.196;2023-06-10T10:15:31;10.18;;;6.07;;
14040;SDS011;7095;51.388;6.196;2023-06-10T10:18:06;11.63;;;7.10;;
14040;SDS011;7095;51.388;6.196;2023-06-10T10:20:46;8.10;;;6.13;;
14040;SDS011;7095;51.388;6.196;2023-06-10T10:23:21;13.57;;;6.55;;
14040;SDS011;7095;51.388;6.196;2023-06-10T10:25:54;8.00;;;6.75;;
14040;SDS011;7095;51.388;6.196;2023-06-10T10:28:25;7.72;;;6.07;;
14040;SDS011;7095;51.388;6.196;2023-06-10T10:31:04;11.50;;;6.22;;
14040;SDS011;7095;51.388;6.196;2023-06-10T10:33:42;8.45;;;6.40;;
14040;SDS011;7095;51.388;6.196;2023-06-10T10:36:23;8.75;;;5.93;;
14040;SDS011;7095;51.388;6.196;2023-06-10T10:38:54;9.13;;;6.13;;
14040;SDS011;7095;51.388;6.196;2023-06-10T10:41:26;8.60;;;6.97;;
14040;SDS011;7095;51.388;6.196;2023-06-10T10:43:56;6.88;;;6.15;;
14040;SDS011;7095;51.388;6.196;2023-06-10T10:46:26;7.72;;;6.47;;
14040;SDS011;7095;51.388;6.196;2023-06-10T10:48:56;8.68;;;6.43;;
14040;SDS011;7095;51.388;6.196;2023-06-10T10:51:26;12.60;;;6.72;;
14040;SDS011;7095;51.388;6.196;2023-06-10T10:54:12;14.60;;;6.45;;
14040;SDS011;7095;51.388;6.196;2023-06-10T10:59:44;7.63;;;6.22;;
14040;SDS011;7095;51.388;6.196;2023-06-10T11:02:33;8.38;;;6.13;;
14040;SDS011;7095;51.388;6.196;2023-06-10T11:05:12;8.10;;;6.60;;
14040;SDS011;7095;51.388;6.196;2023-06-10T11:07:51;14.23;;;6.32;;
14040;SDS011;7095;51.388;6.196;2023-06-10T11:10:28;10.98;;;5.95;;
14040;SDS011;7095;51.388;6.196;2023-06-10T11:12:59;8.23;;;6.03;;
14040;SDS011;7095;51.388;6.196;2023-06-10T11:15:28;12.13;;;6.40;;
14040;SDS011;7095;51.388;6.196;2023-06-10T11:18:08;8.55;;;5.72;;
14040;SDS011;7095;51.388;6.196;2023-06-10T11:20:46;10.18;;;6.90;;
14040;SDS011;7095;51.388;6.196;2023-06-10T11:23:25;7.90;;;5.70;;
14040;SDS011;7095;51.388;6.196;2023-06-10T11:26:15;13.75;;;6.25;;
14040;SDS011;7095;51.388;6.196;2023-06-10T11:29:01;7.53;;;6.10;;
14040;SDS011;7095;51.388;6.196;2023-06-10T11:31:41;12.95;;;5.72;;
14040;SDS011;7095;51.388;6.196;2023-06-10T11:34:12;5.88;;;5.28;;
14040;SDS011;7095;51.388;6.196;2023-06-10T11:36:43;10.43;;;5.90;;
14040;SDS011;7095;51.388;6.196;2023-06-10T11:39:13;12.05;;;6.47;;
14040;SDS011;7095;51.388;6.196;2023-06-10T11:41:42;7.22;;;5.88;;
14040;SDS011;7095;51.388;6.196;2023-06-10T11:44:11;11.27;;;5.43;;
14040;SDS011;7095;51.388;6.196;2023-06-10T11:46:47;7.20;;;5.93;;
14040;SDS011;7095;51.388;6.196;2023-06-10T11:49:17;13.27;;;5.85;;
14040;SDS011;7095;51.388;6.196;2023-06-10T11:51:47;6.60;;;5.40;;
14040;SDS011;7095;51.388;6.196;2023-06-10T11:54:23;8.52;;;5.43;;
14040;SDS011;7095;51.388;6.196;2023-06-10T11:56:59;8.43;;;5.72;;
14040;SDS011;7095;51.388;6.196;2023-06-10T11:59:30;8.98;;;5.97;;
14040;SDS011;7095;51.388;6.196;2023-06-10T12:01:59;9.40;;;6.38;;
14040;SDS011;7095;51.388;6.196;2023-06-10T12:04:28;10.25;;;6.28;;
14040;SDS011;7095;51.388;6.196;2023-06-10T12:07:00;8.02;;;5.97;;
14040;SDS011;7095;51.388;6.196;2023-06-10T12:09:29;8.35;;;6.28;;
14040;SDS011;7095;51.388;6.196;2023-06-10T12:12:00;7.78;;;6.13;;
14040;SDS011;7095;51.388;6.196;2023-06-10T12:17:23;5.90;;;5.40;;
14040;SDS011;7095;51.388;6.196;2023-06-10T12:20:07;8.20;;;5.43;;
14040;SDS011;7095;51.388;6.196;2023-06-10T12:22:43;6.75;;;5.90;;
14040;SDS011;7095;51.388;6.196;2023-06-10T12:25:13;11.65;;;6.07;;
14040;SDS011;7095;51.388;6.196;2023-06-10T12:27:49;8.77;;;5.78;;
14040;SDS011;7095;51.388;6.196;2023-06-10T12:30:20;10.82;;;5.95;;
14040;SDS011;7095;51.388;6.196;2023-06-10T12:32:50;7.40;;;5.82;;
14040;SDS011;7095;51.388;6.196;2023-06-10T12:35:21;9.90;;;5.38;;
14040;SDS011;7095;51.388;6.196;2023-06-10T12:37:56;11.20;;;6.20;;
14040;SDS011;7095;51.388;6.196;2023-06-10T12:40:26;8.15;;;5.55;;
14040;SDS011;7095;51.388;6.196;2023-06-10T12:42:56;7.30;;;6.00;;
14040;SDS011;7095;51.388;6.196;2023-06-10T12:45:26;6.95;;;5.35;;
14040;SDS011;7095;51.388;6.196;2023-06-10T12:48:06;5.75;;;5.25;;
14040;SDS011;7095;51.388;6.196;2023-06-10T12:50:37;5.82;;;4.88;;
14040;SDS011;7095;51.388;6.196;2023-06-10T12:53:08;6.78;;;5.60;;
14040;SDS011;7095;51.388;6.196;2023-06-10T12:55:38;6.20;;;5.25;;
14040;SDS011;7095;51.388;6.196;2023-06-10T12:58:07;6.18;;;5.60;;
14040;SDS011;7095;51.388;6.196;2023-06-10T13:00:36;5.95;;;5.20;;
14040;SDS011;7095;51.388;6.196;2023-06-10T13:03:06;8.30;;;5.45;;
14040;SDS011;7095;51.388;6.196;2023-06-10T13:05:35;5.75;;;5.25;;
14040;SDS011;7095;51.388;6.196;2023-06-10T13:08:07;6.18;;;5.10;;
14040;SDS011;7095;51.388;6.196;2023-06-10T13:10:38;6.18;;;5.65;;
14040;SDS011;7095;51.388;6.196;2023-06-10T13:13:07;6.40;;;5.80;;
14040;SDS011;7095;51.388;6.196;2023-06-10T13:15:37;7.50;;;5.30;;
14040;SDS011;7095;51.388;6.196;2023-06-10T13:18:09;7.05;;;5.43;;
14040;SDS011;7095;51.388;6.196;2023-06-10T13:20:39;6.78;;;5.47;;
14040;SDS011;7095;51.388;6.196;2023-06-10T13:23:09;9.18;;;5.38;;
14040;SDS011;7095;51.388;6.196;2023-06-10T13:25:38;11.50;;;5.43;;
14040;SDS011;7095;51.388;6.196;2023-06-10T13:28:07;11.43;;;5.70;;
14040;SDS011;7095;51.388;6.196;2023-06-10T13:30:37;7.07;;;5.82;;
14040;SDS011;7095;51.388;6.196;2023-06-10T13:33:06;7.32;;;5.78;;
14040;SDS011;7095;51.388;6.196;2023-06-10T13:35:35;9.35;;;5.70;;
14040;SDS011;7095;51.388;6.196;2023-06-10T13:38:03;6.43;;;5.53;;
14040;SDS011;7095;51.388;6.196;2023-06-10T13:40:35;5.97;;;4.90;;
14040;SDS011;7095;51.388;6.196;2023-06-10T13:43:04;6.55;;;5.95;;
14040;SDS011;7095;51.388;6.196;2023-06-10T13:45:33;6.03;;;5.38;;
14040;SDS011;7095;51.388;6.196;2023-06-10T13:48:02;6.28;;;5.68;;
14040;SDS011;7095;51.388;6.196;2023-06-10T13:50:32;6.70;;;5.88;;
14040;SDS011;7095;51.388;6.196;2023-06-10T13:53:01;8.00;;;6.13;;
14040;SDS011;7095;51.388;6.196;2023-06-10T13:55:30;6.72;;;5.28;;
14040;SDS011;7095;51.388;6.196;2023-06-10T13:58:01;6.38;;;5.18;;
14040;SDS011;7095;51.388;6.196;2023-06-10T14:00:30;6.93;;;6.00;;
14040;SDS011;7095;51.388;6.196;2023-06-10T14:02:59;6.63;;;5.80;;
14040;SDS011;7095;51.388;6.196;2023-06-10T14:05:28;6.68;;;5.22;;
14040;SDS011;7095;51.388;6.196;2023-06-10T14:07:58;6.72;;;5.88;;
14040;SDS011;7095;51.388;6.196;2023-06-10T14:10:26;7.80;;;5.70;;
14040;SDS011;7095;51.388;6.196;2023-06-10T14:12:55;5.93;;;5.40;;
14040;SDS011;7095;51.388;6.196;2023-06-10T14:15:25;6.35;;;5.35;;
14040;SDS011;7095;51.388;6.196;2023-06-10T14:17:54;7.50;;;5.93;;
14040;SDS011;7095;51.388;6.196;2023-06-10T14:20:23;6.25;;;5.60;;
14040;SDS011;7095;51.388;6.196;2023-06-10T14:22:53;8.15;;;6.20;;
14040;SDS011;7095;51.388;6.196;2023-06-10T14:25:23;6.20;;;5.60;;
14040;SDS011;7095;51.388;6.196;2023-06-10T14:27:51;6.28;;;5.43;;
14040;SDS011;7095;51.388;6.196;2023-06-10T14:30:20;6.70;;;5.55;;
14040;SDS011;7095;51.388;6.196;2023-06-10T14:32:50;9.15;;;6.43;;
14040;SDS011;7095;51.388;6.196;2023-06-10T14:35:19;8.57;;;5.90;;
14040;SDS011;7095;51.388;6.196;2023-06-10T14:37:48;7.80;;;5.75;;
14040;SDS011;7095;51.388;6.196;2023-06-10T14:40:16;7.50;;;6.15;;
14040;SDS011;7095;51.388;6.196;2023-06-10T14:42:46;7.32;;;5.55;;
14040;SDS011;7095;51.388;6.196;2023-06-10T14:45:15;8.90;;;6.10;;
14040;SDS011;7095;51.388;6.196;2023-06-10T14:47:44;6.18;;;5.68;;
14040;SDS011;7095;51.388;6.196;2023-06-10T14:50:15;8.18;;;5.82;;
14040;SDS011;7095;51.388;6.196;2023-06-10T14:52:44;8.98;;;6.25;;
14040;SDS011;7095;51.388;6.196;2023-06-10T14:55:14;10.25;;;6.03;;
14040;SDS011;7095;51.388;6.196;2023-06-10T14:57:43;6.28;;;5.47;;
14040;SDS011;7095;51.388;6.196;2023-06-10T15:00:12;6.43;;;5.82;;
14040;SDS011;7095;51.388;6.196;2023-06-10T15:02:43;6.82;;;5.97;;
14040;SDS011;7095;51.388;6.196;2023-06-10T15:05:15;7.45;;;6.20;;
14040;SDS011;7095;51.388;6.196;2023-06-10T15:07:44;9.88;;;5.93;;
14040;SDS011;7095;51.388;6.196;2023-06-10T15:10:13;6.85;;;5.65;;
14040;SDS011;7095;51.388;6.196;2023-06-10T15:12:43;7.97;;;6.75;;